메인 페이지
METAR-TAF:

METAR-TAF

공항 :

버뮤다, 버뮤다

위도: 32-22N, 경도: 064-41W, 고도: 6m

현재 날씨관측

예보는 16분 전, 07:55시(UTC)에 발표되었습니다.
15kt
온도 27°C
습도 84%
기압 1021 hPa
시정 10km 이상
고도 1400ft 상공 구름 보통
고도 20000ft 상공 구름 많음
고도 30000ft 상공 흐림

METAR: TXKF 200755Z 18015KT 9999 SCT014 BKN200 OVC300 27/24 Q1021

시각: 05:11 (08:11 UTC)

예보

예보는 2 시간 31분 전, 05:40시(UTC)에 발표되었습니다.
예보 대상 시간: 20일 06시부터 21일 06시까지 (UTC)
12kt
시정 10km 이상
고도 1600ft 상공 구름 조금
고도 20000ft 상공 구름 많음
확률 30% :
일시적
20일 09시부터 21일 06시까지 (UTC)
시정: 4800m
고도 1400ft 상공 구름 많음, 적란운.
소나기

TAF: TXKF 200540Z 2006/2106 19012KT 9999 FEW016 BKN200 PROB30 TEMPO 2009/2106 4800 SHRA BKN014CB

4,000개 이상의 공항 관측 자료 및 예보 (METAR 및 TAF 보고).

지도상에서 검색 가능한 기상관측소가 노란 점과 빨간 점으로 표시되어 있습니다.

기상관측소 명을 보려면 표시 위로 마우스를 이동하세요.

날씨 관측과 예보를 보려면 클릭하세요.

지도 변경 : 확대하려면 엑스 표시가 있는 녹색 버튼, 축소하려면 빼기 표시가 있는 녹색 버튼, 다음 페이지의 지도를 보려면 녹색 화살표를 클릭하세요.


METAR-TAF: